Sahiwal Weather



Sahiwal's Current Weather

Temprature 39.09o broken clouds

broken clouds

Rain: 0 %

Min Temprature39.09o
Max Temprature39.09o
Humidity38
Wind Speed6.72 m/h
Sun Rise05:34:07
Sun Set18:57:07
Current Time: 13-Aug-2020 18:55:19
Lat/Lon: 31.97, 72.33




Sahiwal's Geo Location



Sahiwal's Weather Forecast

Time Overall Temp Min Temp Max Temp Humidity Wind Speed Rain
13-Aug-2020 (Thu)
20:00:00 light rain 39.300 35.360 39.300 39 9.52 m/h 30 %
23:00:00 light rain 35.120 32.930 35.120 49 5.35 m/h 27 %
14-Aug-2020 (Fri)
02:00:00 light rain 31.320 30.520 31.320 63 5.2 m/h 93 %
05:00:00 light rain 30.690 30.590 30.690 71 4.49 m/h 118 %
08:00:00 light rain 30.840 30.840 30.840 72 6.05 m/h 280 %
11:00:00 light rain 32.630 32.630 32.630 64 4.82 m/h 74 %
14:00:00 clear sky 38.460 38.460 38.460 41 2.66 m/h 0 %
17:00:00 clear sky 39.800 39.800 39.800 36 2.92 m/h 0 %
20:00:00 clear sky 37.110 37.110 37.110 43 2.92 m/h 0 %
23:00:00 clear sky 35.650 35.650 35.650 48 4.64 m/h 0 %
15-Aug-2020 (Sat)
02:00:00 broken clouds 34.690 34.690 34.690 52 3.84 m/h 0 %
05:00:00 light rain 32.270 32.270 32.270 61 3.69 m/h 25 %
08:00:00 light rain 33.680 33.680 33.680 58 3.99 m/h 23 %
11:00:00 scattered clouds 37.800 37.800 37.800 44 3.93 m/h 0 %
14:00:00 scattered clouds 41.700 41.700 41.700 33 4.65 m/h 0 %
17:00:00 scattered clouds 41.390 41.390 41.390 33 5.13 m/h 0 %
20:00:00 clear sky 37.840 37.840 37.840 41 4.56 m/h 0 %
23:00:00 clear sky 36.590 36.590 36.590 44 4.26 m/h 0 %
16-Aug-2020 (Sun)
02:00:00 scattered clouds 35.080 35.080 35.080 50 5.94 m/h 0 %
05:00:00 broken clouds 33.830 33.830 33.830 54 6.22 m/h 0 %
08:00:00 broken clouds 33.750 33.750 33.750 57 5.5 m/h 0 %
11:00:00 broken clouds 38.510 38.510 38.510 42 5.18 m/h 0 %
14:00:00 clear sky 42.000 42.000 42.000 32 4.32 m/h 0 %
17:00:00 clear sky 41.660 41.660 41.660 32 5.19 m/h 0 %
20:00:00 clear sky 38.300 38.300 38.300 40 4.82 m/h 0 %
23:00:00 clear sky 36.640 36.640 36.640 45 4.48 m/h 0 %
17-Aug-2020 (Mon)
02:00:00 clear sky 35.110 35.110 35.110 51 4.36 m/h 0 %
05:00:00 clear sky 33.500 33.500 33.500 56 4.87 m/h 0 %
08:00:00 few clouds 34.710 34.710 34.710 54 4.83 m/h 0 %
11:00:00 scattered clouds 38.200 38.200 38.200 43 4.17 m/h 0 %
14:00:00 few clouds 42.590 42.590 42.590 31 3.3 m/h 0 %
17:00:00 scattered clouds 40.860 40.860 40.860 36 6.6 m/h 0 %
20:00:00 few clouds 38.000 38.000 38.000 42 5.7 m/h 0 %
23:00:00 few clouds 35.740 35.740 35.740 51 6.61 m/h 0 %
18-Aug-2020 (Tue)
02:00:00 broken clouds 34.460 34.460 34.460 54 4.94 m/h 0 %
05:00:00 broken clouds 33.780 33.780 33.780 51 2.31 m/h 0 %
08:00:00 clear sky 35.380 35.380 35.380 44 2.8 m/h 0 %
11:00:00 clear sky 39.910 39.910 39.910 34 2.89 m/h 0 %
14:00:00 few clouds 43.050 43.050 43.050 27 2.96 m/h 0 %
17:00:00 broken clouds 42.460 42.460 42.460 28 4.63 m/h 0 %

Famous Cities (60)